Terminal Aerodrome Forecast
Issued by NWS Charleston, WV

Current Version | Previous Version | Text Only | Print | Product List | Glossary Off
Versions: 1 2 3 4 5 6 7 8 9 10 11 12 13 14 15 16 17 18 19 20 21

000
FTUS41 KRLX 220500 RRA
TAFHTS
TAF
KHTS 220544Z 2206/2306 00000KT P6SM VCSH OVC090
      TEMPO 2206/2208 -SHRA
     FM221200 21004KT P6SM -SHRA OVC060
     FM221500 27008G13KT 5SM SHRA OVC040
     FM221700 27009G15KT P6SM BKN030
     FM221900 28009G17KT P6SM BKN040
     FM230400 30008G18KT P6SM FEW045=

USA.gov is the U.S. government's official web portal to all federal, state and local government web resources and services.